Time;durP1;ratioP1;P1;durP2;ratioP2;P2;SDS_P1;SDS_P2;PMS_P1;PMS_P2;Temp;Humidity;BMP_temperature;BMP_pressure;BME280_temperature;BME280_humidity;BME280_pressure;Samples;Min_cycle;Max_cycle;Signal;HPM_P1;HPM_P2
2023/07/23 00:00:47;;;;;;;;;;;;;;;15.46;100.00;98157.22;2627153;28;19975;-95
2023/07/23 00:02:23;;;;;;;;;;;;;;;15.42;100.00;98153.03;2630631;28;19950;-96
2023/07/23 00:03:38;;;;;;;;;;;;;;;15.32;100.00;98156.16;2629282;28;19970;-95
2023/07/23 00:04:53;;;;;;;;;;;;;;;15.27;100.00;98155.56;2627051;28;19924;-95
2023/07/23 00:06:09;;;;;;;;;;;;;;;15.36;100.00;98149.78;2626547;28;19924;-96
2023/07/23 00:07:24;;;;;;;;;;;;;;;15.05;100.00;98155.81;2631980;28;20067;-96
2023/07/23 00:08:40;;;;;;;;;;;;;;;14.95;100.00;98156.28;2631943;28;19924;-96
2023/07/23 00:09:55;;;;;;;;;;;;;;;14.96;100.00;98147.44;2636436;28;19916;-96
2023/07/23 00:11:11;;;;;;;;;;;;;;;15.14;100.00;98159.75;2630545;28;19959;-96
2023/07/23 00:12:26;;;;;;;;;;;;;;;15.13;100.00;98155.41;2630480;28;19939;-96
2023/07/23 00:13:41;;;;;;;;;;;;;;;14.85;100.00;98154.19;2629374;28;19928;-96
2023/07/23 00:14:57;;;;;;;;;;;;;;;14.79;100.00;98150.06;2634351;28;19916;-96
2023/07/23 00:16:12;;;;;;;;;;;;;;;14.62;100.00;98159.63;2633761;28;19931;-96
2023/07/23 00:17:28;;;;;;;;;;;;;;;14.73;100.00;98158.25;2632415;28;19928;-96
2023/07/23 00:18:43;;;;;;;;;;;;;;;14.86;100.00;98153.25;2630331;28;19928;-96
2023/07/23 00:19:59;;;;;;;;;;;;;;;14.84;100.00;98155.94;2628205;28;19928;-96
2023/07/23 00:21:14;;;;;;;;;;;;;;;14.80;100.00;98157.88;2628134;28;19929;-96
2023/07/23 00:22:30;;;;;;;;;;;;;;;14.91;100.00;98148.59;2626913;28;19928;-96
2023/07/23 00:23:45;;;;;;;;;;;;;;;14.92;100.00;98151.16;2631376;28;19939;-96
2023/07/23 00:25:00;;;;;;;;;;;;;;;14.86;100.00;98150.63;2634962;28;19912;-96
2023/07/23 00:26:16;;;;;;;;;;;;;;;14.82;100.00;98144.63;2635189;28;19935;-96
2023/07/23 00:27:32;;;;;;;;;;;;;;;14.86;100.00;98146.19;2632094;28;19909;-96
2023/07/23 00:28:47;;;;;;;;;;;;;;;14.64;100.00;98147.22;2636976;28;19929;-95
2023/07/23 00:30:03;;;;;;;;;;;;;;;14.85;100.00;98148.91;2632979;28;19924;-95
2023/07/23 00:31:28;;;;;;;;;;;;;;;14.72;100.00;98141.63;2631335;28;19931;-96
2023/07/23 00:32:43;;;;;;;;;;;;;;;14.87;100.00;98141.78;2632814;28;20005;-96
2023/07/23 00:34:03;;;;;;;;;;;;;;;14.77;100.00;98142.22;2631191;28;20172;-96
2023/07/23 00:35:20;;;;;;;;;;;;;;;14.79;100.00;98139.53;2636339;28;19929;-96
2023/07/23 00:36:35;;;;;;;;;;;;;;;14.76;100.00;98132.63;2633517;28;19916;-96
2023/07/23 00:37:50;;;;;;;;;;;;;;;14.64;100.00;98135.81;2635118;28;20396;-96
2023/07/23 00:39:06;;;;;;;;;;;;;;;14.47;100.00;98139.31;2636426;28;20023;-96
2023/07/23 00:40:21;;;;;;;;;;;;;;;14.46;100.00;98134.94;2637122;28;19914;-95
2023/07/23 00:41:37;;;;;;;;;;;;;;;14.55;100.00;98135.38;2636552;28;19908;-92
2023/07/23 00:42:52;;;;;;;;;;;;;;;14.41;100.00;98137.84;2633120;28;19931;-96
2023/07/23 00:44:07;;;;;;;;;;;;;;;14.37;100.00;98138.88;2637122;28;19915;-92
2023/07/23 00:45:24;;;;;;;;;;;;;;;14.36;100.00;98131.91;2637607;28;19915;-88
2023/07/23 00:46:39;;;;;;;;;;;;;;;14.62;100.00;98129.78;2634599;28;19928;-96
2023/07/23 00:47:54;;;;;;;;;;;;;;;14.50;100.00;98126.00;2631959;28;20595;-96
2023/07/23 00:49:11;;;;;;;;;;;;;;;14.40;100.00;98121.16;2634084;28;19924;-96
2023/07/23 00:50:29;;;;;;;;;;;;;;;14.17;100.00;98124.03;2634919;28;19928;-91
2023/07/23 00:51:44;;;;;;;;;;;;;;;14.23;100.00;98126.41;2635671;28;19924;-96
2023/07/23 00:53:06;;;;;;;;;;;;;;;14.22;100.00;98122.91;2635965;28;19939;-95
2023/07/23 00:54:22;;;;;;;;;;;;;;;14.27;100.00;98123.56;2632136;28;19971;-96
2023/07/23 00:55:37;;;;;;;;;;;;;;;14.18;100.00;98123.97;2633545;28;19987;-90
2023/07/23 00:56:52;;;;;;;;;;;;;;;14.10;100.00;98121.72;2636440;28;19927;-96
2023/07/23 00:58:08;;;;;;;;;;;;;;;14.32;100.00;98125.97;2635020;28;19931;-96
2023/07/23 00:59:23;;;;;;;;;;;;;;;14.22;100.00;98115.00;2634870;28;19924;-96
2023/07/23 01:00:39;;;;;;;;;;;;;;;14.17;100.00;98124.03;2634772;28;19909;-96
2023/07/23 01:01:55;;;;;;;;;;;;;;;14.16;100.00;98122.34;2633078;28;19935;-96
2023/07/23 01:03:10;;;;;;;;;;;;;;;14.11;100.00;98126.06;2633964;28;19928;-96
2023/07/23 01:04:26;;;;;;;;;;;;;;;14.15;100.00;98129.41;2634116;28;19932;-96
2023/07/23 01:05:43;;;;;;;;;;;;;;;14.02;100.00;98121.22;2636762;28;19959;-87
2023/07/23 01:09:41;;;;;;;;;;;;;;;14.18;100.00;98109.94;2641682;22;19925;-96
2023/07/23 01:10:57;;;;;;;;;;;;;;;14.01;100.00;98110.78;2603858;28;19933;-96
2023/07/23 01:12:14;;;;;;;;;;;;;;;14.11;100.00;98114.69;2603058;28;19930;-95
2023/07/23 01:13:31;;;;;;;;;;;;;;;14.16;100.00;98110.03;2601280;28;19931;-95
2023/07/23 01:14:46;;;;;;;;;;;;;;;14.22;100.00;98114.16;2601771;28;20020;-96
2023/07/23 01:16:07;;;;;;;;;;;;;;;13.98;100.00;98117.91;2604524;28;19993;-95
2023/07/23 01:17:23;;;;;;;;;;;;;;;13.75;100.00;98112.84;2606027;28;19910;-95
2023/07/23 01:18:39;;;;;;;;;;;;;;;13.93;100.00;98116.41;2605269;28;19926;-96
2023/07/23 01:19:59;;;;;;;;;;;;;;;13.83;100.00;98116.00;2604717;28;19909;-93
2023/07/23 01:21:16;;;;;;;;;;;;;;;13.62;100.00;98121.31;2606140;28;19916;-88
2023/07/23 01:22:36;;;;;;;;;;;;;;;13.62;100.00;98121.31;2605509;28;19937;-94
2023/07/23 01:23:56;;;;;;;;;;;;;;;13.52;100.00;98114.75;2596208;28;19932;-82
2023/07/23 01:25:11;;;;;;;;;;;;;;;13.70;100.00;98118.31;2614290;28;19913;-90
2023/07/23 01:26:27;;;;;;;;;;;;;;;13.51;100.00;98115.66;2611405;28;19930;-96
2023/07/23 01:27:43;;;;;;;;;;;;;;;13.70;100.00;98120.94;2605968;28;19910;-96
2023/07/23 01:29:01;;;;;;;;;;;;;;;13.59;100.00;98113.56;2595492;28;19917;-91
2023/07/23 01:30:19;;;;;;;;;;;;;;;13.65;100.00;98105.38;2598806;28;19909;-94
2023/07/23 01:31:34;;;;;;;;;;;;;;;13.55;100.00;98107.56;2605266;28;19909;-81
2023/07/23 01:32:53;;;;;;;;;;;;;;;13.58;100.00;98106.59;2606188;28;19934;-95
2023/07/23 01:34:09;;;;;;;;;;;;;;;13.48;100.00;98106.16;2604538;28;19933;-92
2023/07/23 01:35:25;;;;;;;;;;;;;;;13.20;100.00;98101.25;2603651;28;19937;-96
2023/07/23 01:36:42;;;;;;;;;;;;;;;13.41;100.00;98102.06;2591730;28;19934;-90
2023/07/23 01:38:01;;;;;;;;;;;;;;;13.44;100.00;98099.31;2607266;28;19925;-88
2023/07/23 01:39:17;;;;;;;;;;;;;;;13.70;100.00;98107.78;2602753;28;19961;-91
2023/07/23 01:40:34;;;;;;;;;;;;;;;13.45;100.00;98105.44;2605697;28;19921;-88
2023/07/23 01:41:55;;;;;;;;;;;;;;;13.34;100.00;98106.75;2606206;28;19909;-86
2023/07/23 01:43:11;;;;;;;;;;;;;;;13.35;100.00;98107.59;2606012;28;19934;-88
2023/07/23 01:44:27;;;;;;;;;;;;;;;13.18;100.00;98095.22;2605959;28;19948;-96
2023/07/23 01:45:45;;;;;;;;;;;;;;;13.24;100.00;98106.31;2605383;28;19916;-95
2023/07/23 01:47:01;;;;;;;;;;;;;;;13.18;100.00;98100.47;2605955;28;19985;-90
2023/07/23 01:48:16;;;;;;;;;;;;;;;13.27;100.00;98110.56;2606109;28;19925;-87
2023/07/23 01:49:38;;;;;;;;;;;;;;;13.22;100.00;98109.91;2605774;28;19934;-92
2023/07/23 01:50:55;;;;;;;;;;;;;;;13.38;100.00;98112.72;2604440;28;19929;-95
2023/07/23 01:52:13;;;;;;;;;;;;;;;13.26;100.00;98107.09;2602645;28;19935;-96
2023/07/23 01:53:35;;;;;;;;;;;;;;;13.36;100.00;98106.69;2600154;28;19936;-96
2023/07/23 01:54:54;;;;;;;;;;;;;;;13.33;100.00;98115.56;2605418;28;19917;-94
2023/07/23 01:56:09;;;;;;;;;;;;;;;13.42;100.00;98107.25;2604337;28;19941;-96
2023/07/23 01:57:25;;;;;;;;;;;;;;;13.30;100.00;98114.81;2603022;28;20024;-96
2023/07/23 01:58:41;;;;;;;;;;;;;;;13.24;100.00;98110.69;2603555;28;19973;-96
2023/07/23 01:59:59;;;;;;;;;;;;;;;13.39;100.00;98110.00;2605059;28;19913;-96
2023/07/23 02:01:15;;;;;;;;;;;;;;;13.33;100.00;98109.44;2603927;28;19933;-95
2023/07/23 02:02:31;;;;;;;;;;;;;;;13.31;100.00;98112.13;2603687;28;19944;-95
2023/07/23 02:03:49;;;;;;;;;;;;;;;13.36;100.00;98102.25;2603703;28;19930;-95
2023/07/23 02:05:08;;;;;;;;;;;;;;;13.26;100.00;98109.72;2604791;28;19909;-96
2023/07/23 02:06:26;;;;;;;;;;;;;;;13.30;100.00;98107.81;2605553;28;19928;-94
2023/07/23 02:07:43;;;;;;;;;;;;;;;13.29;100.00;98100.84;2603861;28;19988;-95
2023/07/23 02:09:00;;;;;;;;;;;;;;;13.11;100.00;98102.50;2604355;28;19983;-95
2023/07/23 02:10:18;;;;;;;;;;;;;;;13.12;100.00;98101.59;2598429;28;19949;-95
2023/07/23 02:11:33;;;;;;;;;;;;;;;13.07;100.00;98104.41;2604518;28;19924;-95
2023/07/23 02:12:49;;;;;;;;;;;;;;;13.14;100.00;98100.59;2603657;28;19910;-94
2023/07/23 02:14:07;;;;;;;;;;;;;;;13.17;100.00;98096.13;2604346;28;19910;-96
2023/07/23 02:15:24;;;;;;;;;;;;;;;13.08;100.00;98100.03;2604454;28;19940;-96
2023/07/23 02:16:39;;;;;;;;;;;;;;;13.03;100.00;98092.34;2604893;28;19944;-96
2023/07/23 02:17:54;;;;;;;;;;;;;;;13.21;100.00;98092.44;2603949;28;19926;-95
2023/07/23 02:19:11;;;;;;;;;;;;;;;13.07;100.00;98099.16;2604330;28;20411;-95
2023/07/23 02:20:27;;;;;;;;;;;;;;;13.06;100.00;98097.44;2603927;28;19930;-95
2023/07/23 02:21:43;;;;;;;;;;;;;;;13.04;100.00;98096.66;2604131;28;20020;-96
2023/07/23 02:23:00;;;;;;;;;;;;;;;13.05;100.00;98095.75;2604501;28;19936;-95
2023/07/23 02:24:16;;;;;;;;;;;;;;;13.19;100.00;98110.88;2603794;28;19984;-95
2023/07/23 02:25:35;;;;;;;;;;;;;;;13.27;100.00;98105.31;2603518;28;19909;-96
2023/07/23 02:26:51;;;;;;;;;;;;;;;13.32;100.00;98107.72;2605365;28;19925;-95
2023/07/23 02:28:12;;;;;;;;;;;;;;;13.21;100.00;98101.19;2605350;28;19952;-95
2023/07/23 02:29:32;;;;;;;;;;;;;;;13.16;100.00;98102.31;2601700;28;20293;-95
2023/07/23 02:30:55;;;;;;;;;;;;;;;13.28;100.00;98099.97;2606559;28;19937;-95
2023/07/23 02:32:10;;;;;;;;;;;;;;;13.35;100.00;98103.19;2605902;28;19955;-96
2023/07/23 02:33:26;;;;;;;;;;;;;;;13.31;100.00;98108.66;2606439;28;19913;-90
2023/07/23 02:34:42;;;;;;;;;;;;;;;13.15;100.00;98101.44;2607356;28;19926;-91
2023/07/23 02:36:02;;;;;;;;;;;;;;;13.29;100.00;98103.47;2601823;28;20009;-95
2023/07/23 02:37:18;;;;;;;;;;;;;;;13.30;100.00;98105.19;2605553;28;19973;-95
2023/07/23 02:38:34;;;;;;;;;;;;;;;13.30;100.00;98105.19;2605693;28;19981;-95
2023/07/23 02:39:52;;;;;;;;;;;;;;;13.29;100.00;98100.84;2612628;28;19909;-96
2023/07/23 02:41:08;;;;;;;;;;;;;;;13.06;100.00;98101.84;2612804;28;19916;-88
2023/07/23 02:42:23;;;;;;;;;;;;;;;13.12;100.00;98104.22;2610184;28;19929;-95
2023/07/23 02:43:41;;;;;;;;;;;;;;;13.14;100.00;98100.59;2611100;28;19932;-91
2023/07/23 02:44:59;;;;;;;;;;;;;;;13.17;100.00;98102.22;2611864;28;19909;-95
2023/07/23 02:50:30;;;;;;;;;;;;;;;12.90;100.00;98106.91;2649899;23;19962;-95
2023/07/23 02:51:46;;;;;;;;;;;;;;;12.83;100.00;98101.06;2650280;28;19924;-96
2023/07/23 02:53:04;;;;;;;;;;;;;;;12.79;100.00;98099.50;2649086;28;20010;-95
2023/07/23 02:54:19;;;;;;;;;;;;;;;12.56;100.00;98099.53;2653427;28;19907;-89
2023/07/23 02:55:36;;;;;;;;;;;;;;;12.57;100.00;98096.00;2651847;28;19909;-88
2023/07/23 02:56:56;;;;;;;;;;;;;;;12.64;100.00;98096.59;2649722;28;19932;-94
2023/07/23 02:58:12;;;;;;;;;;;;;;;12.79;100.00;98102.13;2653907;28;19907;-92
2023/07/23 02:59:30;;;;;;;;;;;;;;;12.59;100.00;98098.56;2656752;28;19939;-84
2023/07/23 03:00:46;;;;;;;;;;;;;;;12.52;100.00;98095.34;2656010;28;19928;-94
2023/07/23 03:02:07;;;;;;;;;;;;;;;12.57;100.00;98100.41;2657478;28;19940;-94
2023/07/23 03:03:23;;;;;;;;;;;;;;;12.59;100.00;98093.31;2648215;28;19908;-96
2023/07/23 03:27:03;;;;;;;;;;;;;;;13.21;100.00;98092.44;2843953;23;19929;-94
2023/07/23 03:28:18;;;;;;;;;;;;;;;13.22;100.00;98089.75;2603906;28;19921;-95
2023/07/23 03:29:34;;;;;;;;;;;;;;;13.31;100.00;98085.84;2604135;28;19980;-95
2023/07/23 03:30:50;;;;;;;;;;;;;;;13.36;100.00;98086.47;2603436;28;19926;-96
2023/07/23 03:32:10;;;;;;;;;;;;;;;13.39;100.00;98088.13;2603274;28;19930;-95
2023/07/23 03:33:27;;;;;;;;;;;;;;;13.40;100.00;98085.41;2602165;28;19914;-95
2023/07/23 03:34:44;;;;;;;;;;;;;;;13.40;100.00;98081.94;2603546;28;20001;-95
2023/07/23 03:36:00;;;;;;;;;;;;;;;13.43;100.00;98081.81;2605426;28;19910;-95
2023/07/23 03:37:16;;;;;;;;;;;;;;;13.41;100.00;98078.41;2604570;28;19998;-96
2023/07/23 03:38:32;;;;;;;;;;;;;;;13.37;100.00;98080.31;2603019;28;19975;-96
2023/07/23 03:39:53;;;;;;;;;;;;;;;13.39;100.00;98073.19;2603876;28;19989;-96
2023/07/23 03:41:10;;;;;;;;;;;;;;;13.46;100.00;98078.22;2603273;28;19944;-96
2023/07/23 03:42:25;;;;;;;;;;;;;;;13.55;100.00;98080.44;2591373;28;20057;-95
2023/07/23 03:43:41;;;;;;;;;;;;;;;13.52;100.00;98077.94;2596168;28;19932;-96
2023/07/23 03:44:57;;;;;;;;;;;;;;;13.64;100.00;98074.72;2601348;28;19930;-96
2023/07/23 03:46:16;;;;;;;;;;;;;;;13.68;100.00;98073.66;2600741;28;20013;-96
2023/07/23 03:47:31;;;;;;;;;;;;;;;13.65;100.00;98073.81;2602239;28;19979;-96
2023/07/23 03:48:49;;;;;;;;;;;;;;;13.64;100.00;98079.16;2600586;28;19957;-95
2023/07/23 03:50:07;;;;;;;;;;;;;;;13.59;100.00;98078.50;2593266;28;19961;-96
2023/07/23 03:51:23;;;;;;;;;;;;;;;13.59;100.00;98076.72;2588777;28;19926;-96
2023/07/23 03:52:39;;;;;;;;;;;;;;;13.61;100.00;98081.91;2591122;28;20060;-95
2023/07/23 03:53:55;;;;;;;;;;;;;;;13.58;100.00;98082.91;2594405;28;20603;-95
2023/07/23 03:55:10;;;;;;;;;;;;;;;13.58;100.00;98082.91;2598775;28;19929;-96
2023/07/23 03:56:26;;;;;;;;;;;;;;;13.63;100.00;98075.66;2598432;28;19941;-95
2023/07/23 03:57:42;;;;;;;;;;;;;;;13.67;100.00;98077.22;2600033;28;19949;-95
2023/07/23 03:59:00;;;;;;;;;;;;;;;13.66;100.00;98079.94;2600463;28;19952;-95
2023/07/23 04:00:16;;;;;;;;;;;;;;;13.67;100.00;98081.63;2599564;28;19934;-96
2023/07/23 04:01:32;;;;;;;;;;;;;;;13.75;100.00;98073.38;2600206;28;19926;-94
2023/07/23 04:02:48;;;;;;;;;;;;;;;13.79;100.00;98074.94;2600592;28;20008;-95
2023/07/23 04:04:03;;;;;;;;;;;;;;;13.66;100.00;98075.50;2591088;28;19989;-95
2023/07/23 04:05:19;;;;;;;;;;;;;;;13.70;100.00;98068.34;2598531;28;19959;-96
2023/07/23 04:06:35;;;;;;;;;;;;;;;13.70;100.00;98069.19;2597605;28;20489;-95
2023/07/23 04:07:51;;;;;;;;;;;;;;;13.74;100.00;98076.94;2598202;28;19936;-95
2023/07/23 04:09:08;;;;;;;;;;;;;;;13.74;100.00;98079.56;2596434;28;19930;-95
2023/07/23 04:10:23;;;;;;;;;;;;;;;13.75;100.00;98084.75;2595739;28;19935;-95
2023/07/23 04:11:39;;;;;;;;;;;;;;;13.76;100.00;98073.31;2595932;28;20273;-96
2023/07/23 04:12:55;;;;;;;;;;;;;;;13.70;100.00;98077.09;2598452;28;19954;-95
2023/07/23 04:14:11;;;;;;;;;;;;;;;13.64;100.00;98074.72;2600135;28;19961;-95
2023/07/23 04:15:29;;;;;;;;;;;;;;;13.71;100.00;98077.94;2600821;28;19925;-94
2023/07/23 04:16:46;;;;;;;;;;;;;;;13.56;100.00;98075.09;2599333;28;19929;-94
2023/07/23 04:18:01;;;;;;;;;;;;;;;13.69;100.00;98071.88;2600736;28;19926;-95
2023/07/23 04:19:17;;;;;;;;;;;;;;;13.74;100.00;98077.78;2598925;28;20001;-95
2023/07/23 04:20:34;;;;;;;;;;;;;;;13.76;100.00;98077.72;2598854;28;19929;-95
2023/07/23 04:21:50;;;;;;;;;;;;;;;13.88;100.00;98081.53;2596534;28;19959;-96
2023/07/23 04:23:06;;;;;;;;;;;;;;;13.93;100.00;98077.78;2597431;28;20491;-95
2023/07/23 04:24:21;;;;;;;;;;;;;;;13.93;100.00;98076.94;2599310;28;20032;-95
2023/07/23 04:25:37;;;;;;;;;;;;;;;13.95;100.00;98075.91;2599805;28;19930;-95
2023/07/23 04:26:53;;;;;;;;;;;;;;;13.95;100.00;98072.44;2598351;28;20277;-91
2023/07/23 04:28:09;;;;;;;;;;;;;;;14.02;100.00;98073.84;2599301;28;19929;-95
2023/07/23 04:29:24;;;;;;;;;;;;;;;14.03;100.00;98075.53;2596383;28;19913;-95
2023/07/23 04:30:40;;;;;;;;;;;;;;;14.05;100.00;98078.09;2596115;28;19975;-95
2023/07/23 04:31:56;;;;;;;;;;;;;;;14.01;100.00;98073.94;2597245;28;19933;-95
2023/07/23 04:33:11;;;;;;;;;;;;;;;14.03;100.00;98069.44;2598052;28;20009;-95
2023/07/23 04:34:27;;;;;;;;;;;;;;;14.09;100.00;98069.13;2595954;28;20424;-95
2023/07/23 04:35:42;;;;;;;;;;;;;;;14.04;100.00;98074.66;2595217;28;19932;-96
2023/07/23 04:37:00;;;;;;;;;;;;;;;14.06;100.00;98075.41;2595792;28;19953;-95
2023/07/23 04:38:15;;;;;;;;;;;;;;;14.19;100.00;98075.66;2595021;28;19929;-94
2023/07/23 04:39:31;;;;;;;;;;;;;;;14.11;100.00;98080.47;2593847;28;19929;-95
2023/07/23 04:40:47;;;;;;;;;;;;;;;14.09;100.00;98077.91;2583113;28;19940;-95
2023/07/23 04:42:03;;;;;;;;;;;;;;;14.23;100.00;98079.84;2591114;28;19929;-95
2023/07/23 04:43:18;;;;;;;;;;;;;;;14.26;100.00;98074.44;2597010;28;19939;-95
2023/07/23 04:44:34;;;;;;;;;;;;;;;14.26;100.00;98073.59;2598694;28;20388;-96
2023/07/23 04:45:50;;;;;;;;;;;;;;;14.24;100.00;98081.53;2582521;28;19993;-95
2023/07/23 04:47:05;;;;;;;;;;;;;;;14.22;100.00;98067.59;2588352;28;20075;-94
2023/07/23 04:48:21;;;;;;;;;;;;;;;14.28;100.00;98071.72;2579777;28;19930;-93
2023/07/23 04:49:36;;;;;;;;;;;;;;;14.12;100.00;98074.28;2586568;28;19964;-95
2023/07/23 04:50:56;;;;;;;;;;;;;;;14.31;100.00;98079.47;2584346;28;19929;-94
2023/07/23 04:52:11;;;;;;;;;;;;;;;14.13;100.00;98076.81;2596119;28;19932;-95
2023/07/23 04:53:27;;;;;;;;;;;;;;;14.11;100.00;98078.66;2600672;28;19940;-93
2023/07/23 04:54:42;;;;;;;;;;;;;;;14.18;100.00;98073.97;2602221;28;19921;-94
2023/07/23 04:55:59;;;;;;;;;;;;;;;14.33;100.00;98075.00;2601419;28;19932;-93
2023/07/23 04:57:14;;;;;;;;;;;;;;;14.40;100.00;98076.38;2601137;28;19921;-94
2023/07/23 04:58:30;;;;;;;;;;;;;;;14.32;100.00;98080.34;2601478;28;19940;-94
2023/07/23 04:59:46;;;;;;;;;;;;;;;14.35;100.00;98078.41;2591391;28;19943;-93
2023/07/23 05:01:06;;;;;;;;;;;;;;;14.34;100.00;98070.56;2589089;28;19941;-95
2023/07/23 05:02:21;;;;;;;;;;;;;;;14.26;100.00;98074.44;2592845;28;19925;-94
2023/07/23 05:03:37;;;;;;;;;;;;;;;14.24;100.00;98072.81;2593511;28;20004;-93
2023/07/23 05:04:53;;;;;;;;;;;;;;;14.36;100.00;98068.72;2593801;28;19929;-93
2023/07/23 05:06:09;;;;;;;;;;;;;;;14.29;100.00;98076.06;2591105;28;20389;-92
2023/07/23 05:07:24;;;;;;;;;;;;;;;14.45;100.00;98070.91;2589936;28;21089;-92
2023/07/23 05:08:39;;;;;;;;;;;;;;;14.42;100.00;98071.06;2589852;28;19941;-91
2023/07/23 05:09:55;;;;;;;;;;;;;;;14.41;100.00;98075.44;2590008;28;19930;-92
2023/07/23 05:11:10;;;;;;;;;;;;;;;14.53;100.00;98070.50;2589809;28;20393;-92
2023/07/23 05:12:26;;;;;;;;;;;;;;;14.64;100.00;98069.97;2590852;28;19929;-94
2023/07/23 05:13:42;;;;;;;;;;;;;;;14.56;100.00;98065.09;2590170;28;20076;-94
2023/07/23 05:15:08;;;;;;;;;;;;;;;14.72;100.00;98065.19;2590367;28;20361;-90
2023/07/23 05:16:24;;;;;;;;;;;;;;;14.96;100.00;98072.78;2590193;28;19976;-90
2023/07/23 05:17:40;;;;;;;;;;;;;;;15.09;100.00;98067.72;2589723;28;19929;-91
2023/07/23 05:18:55;;;;;;;;;;;;;;;15.16;100.00;98065.59;2589413;28;19929;-89
2023/07/23 05:20:10;;;;;;;;;;;;;;;15.13;100.00;98068.41;2589137;28;19929;-89
2023/07/23 05:21:26;;;;;;;;;;;;;;;15.23;100.00;98064.34;2589608;28;19934;-90
2023/07/23 05:22:41;;;;;;;;;;;;;;;15.28;100.00;98072.88;2589327;28;19972;-90
2023/07/23 05:23:57;;;;;;;;;;;;;;;15.17;100.00;98069.94;2588922;28;19935;-90
2023/07/23 05:25:12;;;;;;;;;;;;;;;15.23;100.00;98072.25;2589302;28;19925;-89
2023/07/23 05:26:28;;;;;;;;;;;;;;;15.28;100.00;98072.88;2589436;28;19926;-90
2023/07/23 05:27:43;;;;;;;;;;;;;;;15.16;100.00;98076.16;2586598;28;19925;-92
2023/07/23 05:28:58;;;;;;;;;;;;;;;15.30;100.00;98081.53;2584640;28;20428;-91
2023/07/23 05:30:14;;;;;;;;;;;;;;;15.27;100.00;98081.72;2585225;28;19933;-93
2023/07/23 05:31:29;;;;;;;;;;;;;;;15.36;100.00;98072.44;2584571;28;19932;-93
2023/07/23 05:32:44;;;;;;;;;;;;;;;15.51;100.00;98073.41;2585758;28;19925;-93
2023/07/23 05:34:00;;;;;;;;;;;;;;;15.57;100.00;98064.28;2586726;28;19949;-93
2023/07/23 05:35:15;;;;;;;;;;;;;;;15.67;100.00;98069.00;2586418;28;20101;-93
2023/07/23 05:36:31;;;;;;;;;;;;;;;15.76;100.00;98072.91;2584306;28;19969;-94
2023/07/23 05:37:46;;;;;;;;;;;;;;;15.91;100.00;98063.31;2584263;28;19999;-93
2023/07/23 05:39:02;;;;;;;;;;;;;;;15.80;100.00;98070.97;2585336;28;19930;-94
2023/07/23 05:40:18;;;;;;;;;;;;;;;15.88;100.00;98066.09;2584960;28;20476;-94
2023/07/23 05:41:33;;;;;;;;;;;;;;;15.97;100.00;98069.22;2585479;28;19929;-94
2023/07/23 05:42:49;;;;;;;;;;;;;;;16.06;100.00;98071.31;2586345;28;19930;-95
2023/07/23 05:44:04;;;;;;;;;;;;;;;16.08;100.00;98062.38;2585395;28;19973;-94
2023/07/23 05:45:20;;;;;;;;;;;;;;;16.19;100.00;98059.09;2586741;28;19937;-94
2023/07/23 05:46:35;;;;;;;;;;;;;;;16.23;100.00;98060.66;2585181;28;19999;-94
2023/07/23 05:47:50;;;;;;;;;;;;;;;16.27;100.00;98063.13;2586783;28;20370;-93
2023/07/23 05:49:06;;;;;;;;;;;;;;;16.12;100.00;98063.06;2584165;28;19983;-93
2023/07/23 05:50:21;;;;;;;;;;;;;;;16.38;100.00;98061.53;2584395;28;19933;-94
2023/07/23 05:51:37;;;;;;;;;;;;;;;16.49;100.00;98062.72;2584724;28;19949;-94
2023/07/23 05:52:52;;;;;;;;;;;;;;;16.58;100.00;98072.75;2585880;28;19973;-95
2023/07/23 05:54:08;;;;;;;;;;;;;;;16.61;100.00;98069.94;2572922;28;20172;-93
2023/07/23 05:55:23;;;;;;;;;;;;;;;16.74;100.00;98072.69;2578958;28;19929;-93
2023/07/23 05:56:39;;;;;;;;;;;;;;;16.73;100.00;98073.63;2585440;28;19930;-92
2023/07/23 05:57:54;;;;;;;;;;;;;;;16.91;100.00;98068.22;2584721;28;20345;-92
2023/07/23 05:59:10;;;;;;;;;;;;;;;16.83;100.00;98067.81;2584444;28;19929;-93
2023/07/23 06:00:25;;;;;;;;;;;;;;;16.90;100.00;98066.47;2584774;28;19938;-93
2023/07/23 06:01:40;;;;;;;;;;;;;;;17.09;100.00;98063.59;2585099;28;19981;-93
2023/07/23 06:02:56;;;;;;;;;;;;;;;17.12;100.00;98065.22;2586790;28;19973;-94
2023/07/23 06:04:12;;;;;;;;;;;;;;;17.18;99.34;98063.06;2587410;28;20435;-92
2023/07/23 06:05:27;;;;;;;;;;;;;;;17.23;99.12;98055.69;2584385;28;19934;-91
2023/07/23 06:06:42;;;;;;;;;;;;;;;17.04;100.00;98058.63;2585659;28;19930;-93
2023/07/23 06:07:58;;;;;;;;;;;;;;;16.99;98.91;98062.47;2586793;28;20330;-92
2023/07/23 06:09:14;;;;;;;;;;;;;;;17.26;95.68;98059.09;2586349;28;19979;-93
2023/07/23 06:10:29;;;;;;;;;;;;;;;17.13;97.74;98059.00;2586937;28;19925;-91
2023/07/23 06:11:44;;;;;;;;;;;;;;;17.17;97.51;98057.84;2586583;28;19926;-92
2023/07/23 06:13:00;;;;;;;;;;;;;;;16.95;100.00;98053.84;2586866;28;20016;-91
2023/07/23 06:14:15;;;;;;;;;;;;;;;17.12;94.07;98059.94;2584577;28;19937;-92
2023/07/23 06:15:31;;;;;;;;;;;;;;;17.21;94.01;98064.66;2585098;28;20078;-90
2023/07/23 06:16:46;;;;;;;;;;;;;;;17.33;92.15;98050.69;2586359;28;19988;-91
2023/07/23 06:18:02;;;;;;;;;;;;;;;17.34;92.92;98054.16;2586403;28;19962;-90
2023/07/23 06:19:17;;;;;;;;;;;;;;;17.36;91.98;98060.22;2584433;28;19940;-90
2023/07/23 06:20:33;;;;;;;;;;;;;;;17.50;91.09;98062.00;2574430;28;19933;-89
2023/07/23 06:21:48;;;;;;;;;;;;;;;17.43;90.96;98061.53;2580063;28;19929;-90
2023/07/23 06:23:03;;;;;;;;;;;;;;;17.54;91.51;98058.22;2586699;28;20231;-90
2023/07/23 06:24:19;;;;;;;;;;;;;;;17.47;89.27;98052.47;2585104;28;20067;-90
2023/07/23 06:25:34;;;;;;;;;;;;;;;17.56;87.60;98052.84;2585587;28;19929;-91
2023/07/23 06:26:50;;;;;;;;;;;;;;;17.78;85.24;98054.97;2586409;28;20381;-89
2023/07/23 06:28:05;;;;;;;;;;;;;;;17.82;84.75;98056.47;2589847;28;20192;-92
2023/07/23 06:29:21;;;;;;;;;;;;;;;17.76;86.19;98063.00;2590843;28;20426;-91
2023/07/23 06:30:36;;;;;;;;;;;;;;;17.90;85.26;98062.13;2590389;28;19945;-91
2023/07/23 06:31:52;;;;;;;;;;;;;;;18.02;80.38;98057.84;2590116;28;19925;-90
2023/07/23 06:33:08;;;;;;;;;;;;;;;17.87;81.34;98057.00;2590747;28;19960;-91
2023/07/23 06:34:23;;;;;;;;;;;;;;;18.14;78.43;98055.38;2590147;28;20101;-91
2023/07/23 06:35:41;;;;;;;;;;;;;;;18.30;78.02;98053.41;2590073;28;20582;-90
2023/07/23 06:36:57;;;;;;;;;;;;;;;18.41;76.33;98055.34;2590428;28;20560;-91
2023/07/23 06:38:12;;;;;;;;;;;;;;;18.49;75.58;98052.16;2589929;28;19925;-91
2023/07/23 06:39:28;;;;;;;;;;;;;;;18.61;75.10;98054.00;2590179;28;19929;-91
2023/07/23 06:40:44;;;;;;;;;;;;;;;18.64;73.38;98056.44;2590467;28;19936;-90
2023/07/23 06:41:59;;;;;;;;;;;;;;;18.80;72.17;98046.59;2590520;28;20289;-91
2023/07/23 06:43:16;;;;;;;;;;;;;;;18.83;71.49;98051.69;2590454;28;19929;-91
2023/07/23 06:44:31;;;;;;;;;;;;;;;19.04;69.92;98052.91;2590539;28;19929;-91
2023/07/23 06:45:47;;;;;;;;;;;;;;;19.07;69.57;98049.22;2590520;28;19933;-91
2023/07/23 06:47:03;;;;;;;;;;;;;;;19.12;70.55;98043.56;2590054;28;19926;-90
2023/07/23 06:48:20;;;;;;;;;;;;;;;19.30;73.18;98044.94;2590139;28;20055;-91
2023/07/23 06:49:35;;;;;;;;;;;;;;;19.29;68.41;98043.25;2590235;28;19930;-90
2023/07/23 06:50:51;;;;;;;;;;;;;;;19.43;70.06;98039.59;2590398;28;19933;-90
2023/07/23 06:52:06;;;;;;;;;;;;;;;19.59;69.09;98038.50;2590204;28;20424;-90
2023/07/23 06:53:21;;;;;;;;;;;;;;;19.76;67.67;98040.78;2590388;28;19933;-90
2023/07/23 06:54:40;;;;;;;;;;;;;;;19.86;66.88;98040.97;2590294;28;19926;-90
2023/07/23 06:56:03;;;;;;;;;;;;;;;19.99;66.95;98042.78;2590304;28;20298;-91
2023/07/23 06:57:18;;;;;;;;;;;;;;;20.10;66.09;98034.84;2590208;28;19930;-90
2023/07/23 06:58:37;;;;;;;;;;;;;;;20.24;63.10;98043.59;2590397;28;19952;-90
2023/07/23 06:59:52;;;;;;;;;;;;;;;20.27;63.12;98038.91;2590114;28;19929;-90
2023/07/23 07:01:10;;;;;;;;;;;;;;;20.37;64.09;98027.59;2590260;28;20040;-90
2023/07/23 07:02:26;;;;;;;;;;;;;;;20.60;63.39;98028.50;2590328;28;19933;-90